sensor_id;sensor_type;location;lat;lon;timestamp;temperature;humidity
27922;DHT22;15261;50.356;10.340;2022-09-19T00:01:25;8.60;99.90
27922;DHT22;15261;50.356;10.340;2022-09-19T00:03:53;8.70;99.90
27922;DHT22;15261;50.356;10.340;2022-09-19T00:06:20;8.70;99.90
27922;DHT22;15261;50.356;10.340;2022-09-19T00:08:46;8.70;99.90
27922;DHT22;15261;50.356;10.340;2022-09-19T00:11:14;8.70;99.90
27922;DHT22;15261;50.356;10.340;2022-09-19T00:13:41;8.70;99.90
27922;DHT22;15261;50.356;10.340;2022-09-19T00:18:45;8.70;99.90
27922;DHT22;15261;50.356;10.340;2022-09-19T00:21:11;8.70;99.90
27922;DHT22;15261;50.356;10.340;2022-09-19T00:23:36;8.70;99.90
27922;DHT22;15261;50.356;10.340;2022-09-19T00:26:20;8.70;99.90
27922;DHT22;15261;50.356;10.340;2022-09-19T00:28:46;8.70;99.90
27922;DHT22;15261;50.356;10.340;2022-09-19T00:31:19;8.80;99.90
27922;DHT22;15261;50.356;10.340;2022-09-19T00:33:46;8.80;99.90
27922;DHT22;15261;50.356;10.340;2022-09-19T00:36:13;8.80;99.90
27922;DHT22;15261;50.356;10.340;2022-09-19T00:38:39;8.70;99.90
27922;DHT22;15261;50.356;10.340;2022-09-19T00:41:05;8.70;99.90
27922;DHT22;15261;50.356;10.340;2022-09-19T00:46:16;8.70;99.90
27922;DHT22;15261;50.356;10.340;2022-09-19T00:48:43;8.70;99.90
27922;DHT22;15261;50.356;10.340;2022-09-19T00:51:17;8.70;99.90
27922;DHT22;15261;50.356;10.340;2022-09-19T00:53:45;8.70;99.90
27922;DHT22;15261;50.356;10.340;2022-09-19T00:56:12;8.80;99.90
27922;DHT22;15261;50.356;10.340;2022-09-19T00:58:41;8.80;99.90
27922;DHT22;15261;50.356;10.340;2022-09-19T01:01:09;8.80;99.90
27922;DHT22;15261;50.356;10.340;2022-09-19T01:03:35;8.80;99.90
27922;DHT22;15261;50.356;10.340;2022-09-19T01:09:02;8.80;99.90
27922;DHT22;15261;50.356;10.340;2022-09-19T01:11:44;8.80;99.90
27922;DHT22;15261;50.356;10.340;2022-09-19T01:16:45;8.90;99.90
27922;DHT22;15261;50.356;10.340;2022-09-19T01:19:37;8.90;99.90
27922;DHT22;15261;50.356;10.340;2022-09-19T01:25:31;8.90;99.90
27922;DHT22;15261;50.356;10.340;2022-09-19T01:28:11;8.90;99.90
27922;DHT22;15261;50.356;10.340;2022-09-19T01:30:53;8.90;99.90
27922;DHT22;15261;50.356;10.340;2022-09-19T01:33:40;8.90;99.90
27922;DHT22;15261;50.356;10.340;2022-09-19T01:36:08;8.90;99.90
27922;DHT22;15261;50.356;10.340;2022-09-19T01:38:36;8.90;99.90
27922;DHT22;15261;50.356;10.340;2022-09-19T01:41:05;8.90;99.90
27922;DHT22;15261;50.356;10.340;2022-09-19T01:43:33;8.90;99.90
27922;DHT22;15261;50.356;10.340;2022-09-19T01:46:03;8.90;99.90
27922;DHT22;15261;50.356;10.340;2022-09-19T01:48:48;8.90;99.90
27922;DHT22;15261;50.356;10.340;2022-09-19T01:51:31;8.90;99.90
27922;DHT22;15261;50.356;10.340;2022-09-19T01:59:37;8.90;99.90
27922;DHT22;15261;50.356;10.340;2022-09-19T02:05:14;8.90;99.90
27922;DHT22;15261;50.356;10.340;2022-09-19T02:07:42;9.00;99.90
27922;DHT22;15261;50.356;10.340;2022-09-19T02:10:25;9.00;99.90
27922;DHT22;15261;50.356;10.340;2022-09-19T02:12:53;9.00;99.90
27922;DHT22;15261;50.356;10.340;2022-09-19T02:15:23;9.10;99.90
27922;DHT22;15261;50.356;10.340;2022-09-19T02:18:12;9.10;99.90
27922;DHT22;15261;50.356;10.340;2022-09-19T02:20:41;9.10;99.90
27922;DHT22;15261;50.356;10.340;2022-09-19T02:23:20;9.10;99.90
27922;DHT22;15261;50.356;10.340;2022-09-19T02:25:49;9.10;99.90
27922;DHT22;15261;50.356;10.340;2022-09-19T02:28:19;9.10;99.90
27922;DHT22;15261;50.356;10.340;2022-09-19T02:30:47;9.20;99.90
27922;DHT22;15261;50.356;10.340;2022-09-19T02:33:13;9.20;99.90
27922;DHT22;15261;50.356;10.340;2022-09-19T02:36:05;9.20;99.90
27922;DHT22;15261;50.356;10.340;2022-09-19T02:41:24;9.20;99.90
27922;DHT22;15261;50.356;10.340;2022-09-19T02:44:05;9.20;99.90
27922;DHT22;15261;50.356;10.340;2022-09-19T02:46:42;9.20;99.90
27922;DHT22;15261;50.356;10.340;2022-09-19T02:49:19;9.20;99.90
27922;DHT22;15261;50.356;10.340;2022-09-19T02:51:55;9.20;99.90
27922;DHT22;15261;50.356;10.340;2022-09-19T02:54:26;9.20;99.90
27922;DHT22;15261;50.356;10.340;2022-09-19T02:56:56;9.30;99.90
27922;DHT22;15261;50.356;10.340;2022-09-19T02:59:27;9.20;99.90
27922;DHT22;15261;50.356;10.340;2022-09-19T03:01:59;9.30;99.90
27922;DHT22;15261;50.356;10.340;2022-09-19T03:04:35;9.30;99.90
27922;DHT22;15261;50.356;10.340;2022-09-19T03:07:17;9.30;99.90
27922;DHT22;15261;50.356;10.340;2022-09-19T03:12:45;9.30;99.90
27922;DHT22;15261;50.356;10.340;2022-09-19T03:15:18;9.40;99.90
27922;DHT22;15261;50.356;10.340;2022-09-19T03:17:47;9.30;99.90
27922;DHT22;15261;50.356;10.340;2022-09-19T03:20:16;9.30;99.90
27922;DHT22;15261;50.356;10.340;2022-09-19T03:22:42;9.30;99.90
27922;DHT22;15261;50.356;10.340;2022-09-19T03:28:29;9.30;99.90
27922;DHT22;15261;50.356;10.340;2022-09-19T03:30:55;9.30;99.90
27922;DHT22;15261;50.356;10.340;2022-09-19T03:33:25;9.30;99.90
27922;DHT22;15261;50.356;10.340;2022-09-19T03:35:51;9.30;99.90
27922;DHT22;15261;50.356;10.340;2022-09-19T03:38:18;9.40;99.90
27922;DHT22;15261;50.356;10.340;2022-09-19T03:40:45;9.40;99.90
27922;DHT22;15261;50.356;10.340;2022-09-19T03:43:10;9.40;99.90
27922;DHT22;15261;50.356;10.340;2022-09-19T03:45:36;9.40;99.90
27922;DHT22;15261;50.356;10.340;2022-09-19T03:48:02;9.40;99.90
27922;DHT22;15261;50.356;10.340;2022-09-19T03:50:27;9.40;99.90
27922;DHT22;15261;50.356;10.340;2022-09-19T03:52:54;9.40;99.90
27922;DHT22;15261;50.356;10.340;2022-09-19T03:55:19;9.40;99.90
27922;DHT22;15261;50.356;10.340;2022-09-19T03:57:45;9.40;99.90
27922;DHT22;15261;50.356;10.340;2022-09-19T04:00:11;9.40;99.90
27922;DHT22;15261;50.356;10.340;2022-09-19T04:02:37;9.30;99.90
27922;DHT22;15261;50.356;10.340;2022-09-19T04:05:03;9.30;99.90
27922;DHT22;15261;50.356;10.340;2022-09-19T04:07:29;9.30;99.90
27922;DHT22;15261;50.356;10.340;2022-09-19T04:09:55;9.20;99.90
27922;DHT22;15261;50.356;10.340;2022-09-19T04:12:22;9.10;99.90
27922;DHT22;15261;50.356;10.340;2022-09-19T04:14:48;9.10;99.90
27922;DHT22;15261;50.356;10.340;2022-09-19T04:17:14;9.00;99.90
27922;DHT22;15261;50.356;10.340;2022-09-19T04:19:40;9.00;99.90
27922;DHT22;15261;50.356;10.340;2022-09-19T04:22:08;9.00;99.90
27922;DHT22;15261;50.356;10.340;2022-09-19T04:24:34;8.90;99.90
27922;DHT22;15261;50.356;10.340;2022-09-19T04:27:04;8.90;99.90
27922;DHT22;15261;50.356;10.340;2022-09-19T04:29:33;8.80;99.90
27922;DHT22;15261;50.356;10.340;2022-09-19T04:32:00;8.90;99.90
27922;DHT22;15261;50.356;10.340;2022-09-19T04:34:29;9.00;99.90
27922;DHT22;15261;50.356;10.340;2022-09-19T04:37:25;9.10;99.90
27922;DHT22;15261;50.356;10.340;2022-09-19T04:39:51;9.10;99.90
27922;DHT22;15261;50.356;10.340;2022-09-19T04:42:18;9.20;99.90
27922;DHT22;15261;50.356;10.340;2022-09-19T04:44:44;9.30;99.90
27922;DHT22;15261;50.356;10.340;2022-09-19T04:47:10;9.30;99.90
27922;DHT22;15261;50.356;10.340;2022-09-19T04:49:36;9.30;99.90
27922;DHT22;15261;50.356;10.340;2022-09-19T04:52:10;9.30;99.90
27922;DHT22;15261;50.356;10.340;2022-09-19T04:54:40;9.30;99.90
27922;DHT22;15261;50.356;10.340;2022-09-19T04:57:07;9.30;99.90
27922;DHT22;15261;50.356;10.340;2022-09-19T04:59:34;9.30;99.90
27922;DHT22;15261;50.356;10.340;2022-09-19T05:02:00;9.20;99.90
27922;DHT22;15261;50.356;10.340;2022-09-19T05:04:26;9.20;99.90
27922;DHT22;15261;50.356;10.340;2022-09-19T05:07:07;9.20;99.90
27922;DHT22;15261;50.356;10.340;2022-09-19T05:09:34;9.30;99.90
27922;DHT22;15261;50.356;10.340;2022-09-19T05:11:59;9.30;99.90
27922;DHT22;15261;50.356;10.340;2022-09-19T05:14:25;9.30;99.90
27922;DHT22;15261;50.356;10.340;2022-09-19T05:16:55;9.20;99.90
27922;DHT22;15261;50.356;10.340;2022-09-19T05:19:21;9.20;99.90
27922;DHT22;15261;50.356;10.340;2022-09-19T05:21:48;9.30;99.90
27922;DHT22;15261;50.356;10.340;2022-09-19T05:24:14;9.30;99.90
27922;DHT22;15261;50.356;10.340;2022-09-19T05:26:40;9.30;99.90
27922;DHT22;15261;50.356;10.340;2022-09-19T05:29:07;9.30;99.90
27922;DHT22;15261;50.356;10.340;2022-09-19T05:31:33;9.30;99.90
27922;DHT22;15261;50.356;10.340;2022-09-19T05:34:01;9.30;99.90
27922;DHT22;15261;50.356;10.340;2022-09-19T05:36:26;9.40;99.90
27922;DHT22;15261;50.356;10.340;2022-09-19T05:38:52;9.40;99.90
27922;DHT22;15261;50.356;10.340;2022-09-19T05:41:18;9.40;99.90
27922;DHT22;15261;50.356;10.340;2022-09-19T05:43:44;9.50;99.90
27922;DHT22;15261;50.356;10.340;2022-09-19T05:46:10;9.50;99.90
27922;DHT22;15261;50.356;10.340;2022-09-19T05:48:35;9.50;99.90
27922;DHT22;15261;50.356;10.340;2022-09-19T05:51:03;9.50;99.90
27922;DHT22;15261;50.356;10.340;2022-09-19T05:53:29;9.50;99.90
27922;DHT22;15261;50.356;10.340;2022-09-19T05:56:13;9.60;99.90
27922;DHT22;15261;50.356;10.340;2022-09-19T05:58:39;9.60;99.90
27922;DHT22;15261;50.356;10.340;2022-09-19T06:01:09;9.70;99.90
27922;DHT22;15261;50.356;10.340;2022-09-19T06:03:35;9.70;99.90
27922;DHT22;15261;50.356;10.340;2022-09-19T06:06:06;9.80;99.90
27922;DHT22;15261;50.356;10.340;2022-09-19T06:08:34;9.90;99.90
27922;DHT22;15261;50.356;10.340;2022-09-19T06:11:00;10.10;99.90
27922;DHT22;15261;50.356;10.340;2022-09-19T06:13:27;10.20;99.90
27922;DHT22;15261;50.356;10.340;2022-09-19T06:16:12;10.30;99.90
27922;DHT22;15261;50.356;10.340;2022-09-19T06:18:38;10.40;99.90
27922;DHT22;15261;50.356;10.340;2022-09-19T06:21:04;10.40;99.90
27922;DHT22;15261;50.356;10.340;2022-09-19T06:23:29;10.40;99.90
27922;DHT22;15261;50.356;10.340;2022-09-19T06:25:55;10.40;99.90
27922;DHT22;15261;50.356;10.340;2022-09-19T06:28:21;10.40;99.90
27922;DHT22;15261;50.356;10.340;2022-09-19T06:30:46;10.50;99.90
27922;DHT22;15261;50.356;10.340;2022-09-19T06:33:12;10.40;99.90
27922;DHT22;15261;50.356;10.340;2022-09-19T06:35:38;10.50;99.90
27922;DHT22;15261;50.356;10.340;2022-09-19T06:38:04;10.50;99.90
27922;DHT22;15261;50.356;10.340;2022-09-19T06:40:33;10.50;99.90
27922;DHT22;15261;50.356;10.340;2022-09-19T06:43:03;10.50;99.90
27922;DHT22;15261;50.356;10.340;2022-09-19T06:45:30;10.60;99.90
27922;DHT22;15261;50.356;10.340;2022-09-19T06:47:59;10.60;99.90
27922;DHT22;15261;50.356;10.340;2022-09-19T06:50:26;10.70;99.90
27922;DHT22;15261;50.356;10.340;2022-09-19T06:52:52;10.90;99.90
27922;DHT22;15261;50.356;10.340;2022-09-19T06:55:18;11.10;99.90
27922;DHT22;15261;50.356;10.340;2022-09-19T06:57:52;11.30;99.90
27922;DHT22;15261;50.356;10.340;2022-09-19T07:00:20;11.50;99.90
27922;DHT22;15261;50.356;10.340;2022-09-19T07:02:47;11.50;99.90
27922;DHT22;15261;50.356;10.340;2022-09-19T07:05:13;11.40;99.90
27922;DHT22;15261;50.356;10.340;2022-09-19T07:07:39;11.30;99.90
27922;DHT22;15261;50.356;10.340;2022-09-19T07:10:05;11.20;99.90
27922;DHT22;15261;50.356;10.340;2022-09-19T07:12:30;11.20;99.90
27922;DHT22;15261;50.356;10.340;2022-09-19T07:14:56;11.20;99.90
27922;DHT22;15261;50.356;10.340;2022-09-19T07:17:22;11.30;99.90
27922;DHT22;15261;50.356;10.340;2022-09-19T07:19:47;11.40;99.90
27922;DHT22;15261;50.356;10.340;2022-09-19T07:22:13;11.50;99.90
27922;DHT22;15261;50.356;10.340;2022-09-19T07:24:39;11.70;99.90
27922;DHT22;15261;50.356;10.340;2022-09-19T07:27:04;12.00;99.90
27922;DHT22;15261;50.356;10.340;2022-09-19T07:29:30;12.20;99.90
27922;DHT22;15261;50.356;10.340;2022-09-19T07:31:56;12.20;99.90
27922;DHT22;15261;50.356;10.340;2022-09-19T07:34:21;12.30;99.90
27922;DHT22;15261;50.356;10.340;2022-09-19T07:36:47;12.30;99.90
27922;DHT22;15261;50.356;10.340;2022-09-19T07:39:13;12.30;99.90
27922;DHT22;15261;50.356;10.340;2022-09-19T07:41:38;12.20;99.90
27922;DHT22;15261;50.356;10.340;2022-09-19T07:44:04;12.10;99.90
27922;DHT22;15261;50.356;10.340;2022-09-19T07:46:29;12.10;99.90
27922;DHT22;15261;50.356;10.340;2022-09-19T07:48:55;11.90;99.90
27922;DHT22;15261;50.356;10.340;2022-09-19T07:51:21;11.90;99.90
27922;DHT22;15261;50.356;10.340;2022-09-19T07:53:46;11.80;99.90
27922;DHT22;15261;50.356;10.340;2022-09-19T07:56:14;11.80;99.90
27922;DHT22;15261;50.356;10.340;2022-09-19T07:58:40;11.70;99.90
27922;DHT22;15261;50.356;10.340;2022-09-19T08:01:05;11.70;99.90
27922;DHT22;15261;50.356;10.340;2022-09-19T08:03:31;11.70;99.90
27922;DHT22;15261;50.356;10.340;2022-09-19T08:05:59;11.70;99.90
27922;DHT22;15261;50.356;10.340;2022-09-19T08:08:25;11.70;99.90
27922;DHT22;15261;50.356;10.340;2022-09-19T08:10:51;11.70;99.90
27922;DHT22;15261;50.356;10.340;2022-09-19T08:13:18;11.80;99.90
27922;DHT22;15261;50.356;10.340;2022-09-19T08:15:45;12.00;99.90
27922;DHT22;15261;50.356;10.340;2022-09-19T08:18:16;12.10;99.90
27922;DHT22;15261;50.356;10.340;2022-09-19T08:20:43;12.30;99.90
27922;DHT22;15261;50.356;10.340;2022-09-19T08:23:11;12.50;99.90
27922;DHT22;15261;50.356;10.340;2022-09-19T08:25:39;12.60;99.90
27922;DHT22;15261;50.356;10.340;2022-09-19T08:31:25;12.70;99.90
27922;DHT22;15261;50.356;10.340;2022-09-19T08:33:51;12.60;99.90
27922;DHT22;15261;50.356;10.340;2022-09-19T08:36:17;12.70;99.90
27922;DHT22;15261;50.356;10.340;2022-09-19T08:38:43;12.70;99.90
27922;DHT22;15261;50.356;10.340;2022-09-19T08:46:50;12.90;99.90
27922;DHT22;15261;50.356;10.340;2022-09-19T08:49:32;12.90;99.90
27922;DHT22;15261;50.356;10.340;2022-09-19T08:52:07;12.90;99.90
27922;DHT22;15261;50.356;10.340;2022-09-19T08:54:40;12.90;99.90
27922;DHT22;15261;50.356;10.340;2022-09-19T08:57:16;13.00;99.90
27922;DHT22;15261;50.356;10.340;2022-09-19T08:59:43;13.00;99.90
27922;DHT22;15261;50.356;10.340;2022-09-19T09:04:54;13.00;99.90
27922;DHT22;15261;50.356;10.340;2022-09-19T09:07:36;13.00;99.90
27922;DHT22;15261;50.356;10.340;2022-09-19T09:10:13;13.10;99.90
27922;DHT22;15261;50.356;10.340;2022-09-19T09:15:49;13.30;99.90
27922;DHT22;15261;50.356;10.340;2022-09-19T09:24:13;13.20;99.90
27922;DHT22;15261;50.356;10.340;2022-09-19T09:26:41;13.50;99.90
27922;DHT22;15261;50.356;10.340;2022-09-19T09:29:26;13.70;99.90
27922;DHT22;15261;50.356;10.340;2022-09-19T09:34:56;14.10;99.90
27922;DHT22;15261;50.356;10.340;2022-09-19T09:37:48;14.30;99.90
27922;DHT22;15261;50.356;10.340;2022-09-19T09:40:24;14.40;99.90
27922;DHT22;15261;50.356;10.340;2022-09-19T09:43:10;14.20;99.90
27922;DHT22;15261;50.356;10.340;2022-09-19T09:45:46;14.10;99.90
27922;DHT22;15261;50.356;10.340;2022-09-19T09:48:33;13.90;99.90
27922;DHT22;15261;50.356;10.340;2022-09-19T09:58:57;14.30;99.90
27922;DHT22;15261;50.356;10.340;2022-09-19T10:07:28;14.70;99.90
27922;DHT22;15261;50.356;10.340;2022-09-19T10:10:02;14.70;99.90
27922;DHT22;15261;50.356;10.340;2022-09-19T10:12:33;14.70;99.90
27922;DHT22;15261;50.356;10.340;2022-09-19T10:15:07;14.80;99.90
27922;DHT22;15261;50.356;10.340;2022-09-19T10:17:36;14.80;99.90
27922;DHT22;15261;50.356;10.340;2022-09-19T10:20:10;15.00;99.90
27922;DHT22;15261;50.356;10.340;2022-09-19T10:29:31;14.90;99.90
27922;DHT22;15261;50.356;10.340;2022-09-19T10:32:07;14.60;99.90
27922;DHT22;15261;50.356;10.340;2022-09-19T10:34:33;14.50;99.90
27922;DHT22;15261;50.356;10.340;2022-09-19T10:37:03;14.60;99.90
27922;DHT22;15261;50.356;10.340;2022-09-19T10:39:28;14.70;99.90
27922;DHT22;15261;50.356;10.340;2022-09-19T10:41:54;14.90;99.90
27922;DHT22;15261;50.356;10.340;2022-09-19T10:44:23;15.30;99.90
27922;DHT22;15261;50.356;10.340;2022-09-19T10:47:01;15.60;99.90
27922;DHT22;15261;50.356;10.340;2022-09-19T10:49:33;15.70;99.90
27922;DHT22;15261;50.356;10.340;2022-09-19T10:52:04;15.50;99.90
27922;DHT22;15261;50.356;10.340;2022-09-19T10:54:38;15.30;99.90
27922;DHT22;15261;50.356;10.340;2022-09-19T10:57:40;15.00;99.90
27922;DHT22;15261;50.356;10.340;2022-09-19T11:05:31;14.80;99.90
27922;DHT22;15261;50.356;10.340;2022-09-19T11:07:57;15.10;99.90
27922;DHT22;15261;50.356;10.340;2022-09-19T11:10:37;15.30;99.90
27922;DHT22;15261;50.356;10.340;2022-09-19T11:13:16;15.60;99.90
27922;DHT22;15261;50.356;10.340;2022-09-19T11:16:09;15.80;99.90
27922;DHT22;15261;50.356;10.340;2022-09-19T11:24:38;15.80;99.90
27922;DHT22;15261;50.356;10.340;2022-09-19T11:30:21;15.80;99.90
27922;DHT22;15261;50.356;10.340;2022-09-19T11:39:05;16.40;99.90
27922;DHT22;15261;50.356;10.340;2022-09-19T11:41:47;16.40;99.90
27922;DHT22;15261;50.356;10.340;2022-09-19T11:44:30;16.30;99.90
27922;DHT22;15261;50.356;10.340;2022-09-19T12:10:23;13.10;99.90
27922;DHT22;15261;50.356;10.340;2022-09-19T12:12:58;13.50;99.90
27922;DHT22;15261;50.356;10.340;2022-09-19T12:15:29;13.70;99.90
27922;DHT22;15261;50.356;10.340;2022-09-19T12:17:57;14.00;99.90
27922;DHT22;15261;50.356;10.340;2022-09-19T12:20:35;14.30;99.90
27922;DHT22;15261;50.356;10.340;2022-09-19T12:26:08;14.40;99.90
27922;DHT22;15261;50.356;10.340;2022-09-19T12:28:46;14.40;99.90
27922;DHT22;15261;50.356;10.340;2022-09-19T12:31:17;14.40;99.90
27922;DHT22;15261;50.356;10.340;2022-09-19T12:39:01;14.70;99.90
27922;DHT22;15261;50.356;10.340;2022-09-19T12:41:42;14.90;99.90
27922;DHT22;15261;50.356;10.340;2022-09-19T12:44:30;15.10;99.90
27922;DHT22;15261;50.356;10.340;2022-09-19T12:52:29;15.20;99.90
27922;DHT22;15261;50.356;10.340;2022-09-19T12:55:03;15.10;99.90
27922;DHT22;15261;50.356;10.340;2022-09-19T12:57:41;15.10;99.90
27922;DHT22;15261;50.356;10.340;2022-09-19T13:00:10;14.80;99.90
27922;DHT22;15261;50.356;10.340;2022-09-19T13:05:22;14.30;99.90
27922;DHT22;15261;50.356;10.340;2022-09-19T13:10:34;13.90;99.90
27922;DHT22;15261;50.356;10.340;2022-09-19T13:13:41;13.70;99.90
27922;DHT22;15261;50.356;10.340;2022-09-19T13:16:14;13.50;99.90
27922;DHT22;15261;50.356;10.340;2022-09-19T13:18:47;13.10;99.90
27922;DHT22;15261;50.356;10.340;2022-09-19T13:21:44;12.90;99.90
27922;DHT22;15261;50.356;10.340;2022-09-19T13:27:01;12.50;99.90
27922;DHT22;15261;50.356;10.340;2022-09-19T13:32:03;12.80;99.90
27922;DHT22;15261;50.356;10.340;2022-09-19T13:37:00;12.90;99.90
27922;DHT22;15261;50.356;10.340;2022-09-19T13:47:55;12.40;99.90
27922;DHT22;15261;50.356;10.340;2022-09-19T13:53:30;12.20;99.90
27922;DHT22;15261;50.356;10.340;2022-09-19T13:56:01;12.40;99.90
27922;DHT22;15261;50.356;10.340;2022-09-19T13:58:37;12.50;99.90
27922;DHT22;15261;50.356;10.340;2022-09-19T14:03:36;12.80;99.90
27922;DHT22;15261;50.356;10.340;2022-09-19T14:06:29;13.00;99.90
27922;DHT22;15261;50.356;10.340;2022-09-19T14:09:37;13.30;99.90
27922;DHT22;15261;50.356;10.340;2022-09-19T14:27:14;13.70;99.90
27922;DHT22;15261;50.356;10.340;2022-09-19T14:35:44;13.80;99.90
27922;DHT22;15261;50.356;10.340;2022-09-19T14:47:40;14.70;99.90
27922;DHT22;15261;50.356;10.340;2022-09-19T14:50:22;14.90;99.90
27922;DHT22;15261;50.356;10.340;2022-09-19T14:52:54;15.00;99.90
27922;DHT22;15261;50.356;10.340;2022-09-19T14:55:35;15.00;99.90
27922;DHT22;15261;50.356;10.340;2022-09-19T14:58:01;14.90;99.90
27922;DHT22;15261;50.356;10.340;2022-09-19T15:00:29;14.60;99.90
27922;DHT22;15261;50.356;10.340;2022-09-19T15:02:59;14.40;99.90
27922;DHT22;15261;50.356;10.340;2022-09-19T15:05:33;14.20;99.90
27922;DHT22;15261;50.356;10.340;2022-09-19T15:08:13;14.10;99.90
27922;DHT22;15261;50.356;10.340;2022-09-19T15:10:40;13.90;99.90
27922;DHT22;15261;50.356;10.340;2022-09-19T15:13:17;13.90;99.90
27922;DHT22;15261;50.356;10.340;2022-09-19T15:16:16;13.90;99.90
27922;DHT22;15261;50.356;10.340;2022-09-19T15:19:04;13.90;99.90
27922;DHT22;15261;50.356;10.340;2022-09-19T15:21:32;13.90;99.90
27922;DHT22;15261;50.356;10.340;2022-09-19T15:24:34;13.90;99.90
27922;DHT22;15261;50.356;10.340;2022-09-19T15:26:59;13.90;99.90
27922;DHT22;15261;50.356;10.340;2022-09-19T15:29:30;13.90;99.90
27922;DHT22;15261;50.356;10.340;2022-09-19T15:32:21;13.90;99.90
27922;DHT22;15261;50.356;10.340;2022-09-19T15:35:11;14.00;99.90
27922;DHT22;15261;50.356;10.340;2022-09-19T15:37:41;14.10;99.90
27922;DHT22;15261;50.356;10.340;2022-09-19T15:40:12;14.10;99.90
27922;DHT22;15261;50.356;10.340;2022-09-19T15:45:50;14.20;99.90
27922;DHT22;15261;50.356;10.340;2022-09-19T15:48:21;14.00;99.90
27922;DHT22;15261;50.356;10.340;2022-09-19T15:50:51;13.90;99.90
27922;DHT22;15261;50.356;10.340;2022-09-19T15:53:36;14.00;99.90
27922;DHT22;15261;50.356;10.340;2022-09-19T16:05:38;14.10;99.90
27922;DHT22;15261;50.356;10.340;2022-09-19T16:08:21;14.00;99.90
27922;DHT22;15261;50.356;10.340;2022-09-19T16:11:26;13.80;99.90
27922;DHT22;15261;50.356;10.340;2022-09-19T16:17:15;13.60;99.90
27922;DHT22;15261;50.356;10.340;2022-09-19T16:19:45;13.50;99.90
27922;DHT22;15261;50.356;10.340;2022-09-19T16:22:28;13.50;99.90
27922;DHT22;15261;50.356;10.340;2022-09-19T16:25:00;13.40;99.90
27922;DHT22;15261;50.356;10.340;2022-09-19T16:27:55;13.40;99.90
27922;DHT22;15261;50.356;10.340;2022-09-19T16:30:21;13.40;99.90
27922;DHT22;15261;50.356;10.340;2022-09-19T16:32:46;13.30;99.90
27922;DHT22;15261;50.356;10.340;2022-09-19T16:35:19;13.30;99.90
27922;DHT22;15261;50.356;10.340;2022-09-19T16:37:45;13.20;99.90
27922;DHT22;15261;50.356;10.340;2022-09-19T16:40:23;13.10;99.90
27922;DHT22;15261;50.356;10.340;2022-09-19T16:42:51;13.10;99.90
27922;DHT22;15261;50.356;10.340;2022-09-19T16:52:01;13.10;99.90
27922;DHT22;15261;50.356;10.340;2022-09-19T16:54:28;13.10;99.90
27922;DHT22;15261;50.356;10.340;2022-09-19T16:56:53;13.00;99.90
27922;DHT22;15261;50.356;10.340;2022-09-19T16:59:21;12.90;99.90
27922;DHT22;15261;50.356;10.340;2022-09-19T17:01:49;12.90;99.90
27922;DHT22;15261;50.356;10.340;2022-09-19T17:04:18;12.80;99.90
27922;DHT22;15261;50.356;10.340;2022-09-19T17:06:45;12.50;99.90
27922;DHT22;15261;50.356;10.340;2022-09-19T17:09:11;12.10;99.90
27922;DHT22;15261;50.356;10.340;2022-09-19T17:11:37;11.80;99.90
27922;DHT22;15261;50.356;10.340;2022-09-19T17:14:37;11.60;99.90
27922;DHT22;15261;50.356;10.340;2022-09-19T17:17:02;11.50;99.90
27922;DHT22;15261;50.356;10.340;2022-09-19T17:19:28;11.40;99.90
27922;DHT22;15261;50.356;10.340;2022-09-19T17:21:54;11.40;99.90
27922;DHT22;15261;50.356;10.340;2022-09-19T17:24:20;11.30;99.90
27922;DHT22;15261;50.356;10.340;2022-09-19T17:26:45;11.30;99.90
27922;DHT22;15261;50.356;10.340;2022-09-19T17:29:11;11.30;99.90
27922;DHT22;15261;50.356;10.340;2022-09-19T17:31:38;11.30;99.90
27922;DHT22;15261;50.356;10.340;2022-09-19T17:34:07;11.30;99.90
27922;DHT22;15261;50.356;10.340;2022-09-19T17:36:47;11.20;99.90
27922;DHT22;15261;50.356;10.340;2022-09-19T17:39:13;11.20;99.90
27922;DHT22;15261;50.356;10.340;2022-09-19T17:41:39;11.20;99.90
27922;DHT22;15261;50.356;10.340;2022-09-19T17:44:04;11.10;99.90
27922;DHT22;15261;50.356;10.340;2022-09-19T17:46:34;11.10;99.90
27922;DHT22;15261;50.356;10.340;2022-09-19T17:49:10;11.10;99.90
27922;DHT22;15261;50.356;10.340;2022-09-19T17:51:36;11.10;99.90
27922;DHT22;15261;50.356;10.340;2022-09-19T17:57:21;11.20;99.90
27922;DHT22;15261;50.356;10.340;2022-09-19T17:59:47;11.20;99.90
27922;DHT22;15261;50.356;10.340;2022-09-19T18:05:36;11.30;99.90
27922;DHT22;15261;50.356;10.340;2022-09-19T18:08:03;11.30;99.90
27922;DHT22;15261;50.356;10.340;2022-09-19T18:10:40;11.40;99.90
27922;DHT22;15261;50.356;10.340;2022-09-19T18:13:06;11.30;99.90
27922;DHT22;15261;50.356;10.340;2022-09-19T18:15:32;11.20;99.90
27922;DHT22;15261;50.356;10.340;2022-09-19T18:21:09;11.20;99.90
27922;DHT22;15261;50.356;10.340;2022-09-19T18:23:43;11.20;99.90
27922;DHT22;15261;50.356;10.340;2022-09-19T18:26:13;11.20;99.90
27922;DHT22;15261;50.356;10.340;2022-09-19T18:28:43;11.20;99.90
27922;DHT22;15261;50.356;10.340;2022-09-19T18:31:10;11.10;99.90
27922;DHT22;15261;50.356;10.340;2022-09-19T18:33:42;11.10;99.90
27922;DHT22;15261;50.356;10.340;2022-09-19T18:36:16;11.00;99.90
27922;DHT22;15261;50.356;10.340;2022-09-19T18:38:42;11.10;99.90
27922;DHT22;15261;50.356;10.340;2022-09-19T18:44:00;11.00;99.90
27922;DHT22;15261;50.356;10.340;2022-09-19T18:46:26;11.00;99.90
27922;DHT22;15261;50.356;10.340;2022-09-19T18:48:54;11.00;99.90
27922;DHT22;15261;50.356;10.340;2022-09-19T18:51:22;11.00;99.90
27922;DHT22;15261;50.356;10.340;2022-09-19T18:53:52;11.00;99.90
27922;DHT22;15261;50.356;10.340;2022-09-19T18:56:18;10.90;99.90
27922;DHT22;15261;50.356;10.340;2022-09-19T18:58:48;10.90;99.90
27922;DHT22;15261;50.356;10.340;2022-09-19T19:01:14;10.90;99.90
27922;DHT22;15261;50.356;10.340;2022-09-19T19:03:42;10.90;99.90
27922;DHT22;15261;50.356;10.340;2022-09-19T19:06:13;10.90;99.90
27922;DHT22;15261;50.356;10.340;2022-09-19T19:08:38;10.80;99.90
27922;DHT22;15261;50.356;10.340;2022-09-19T19:11:17;10.80;99.90
27922;DHT22;15261;50.356;10.340;2022-09-19T19:13:42;10.80;99.90
27922;DHT22;15261;50.356;10.340;2022-09-19T19:16:14;10.80;99.90
27922;DHT22;15261;50.356;10.340;2022-09-19T19:18:41;10.80;99.90
27922;DHT22;15261;50.356;10.340;2022-09-19T19:21:09;10.70;99.90
27922;DHT22;15261;50.356;10.340;2022-09-19T19:26:48;10.70;99.90
27922;DHT22;15261;50.356;10.340;2022-09-19T19:29:14;10.60;99.90
27922;DHT22;15261;50.356;10.340;2022-09-19T19:31:40;10.60;99.90
27922;DHT22;15261;50.356;10.340;2022-09-19T19:34:06;10.60;99.90
27922;DHT22;15261;50.356;10.340;2022-09-19T19:36:33;10.60;99.90